CJK3 weather

Beauval Airport
Beauval, Saskatchewan, Canada

Public forecast

Using degrees Celsius for public forecast. Weather courtesy of forecast.io.

Closest aviation weather report (METAR) to Beauval Airport

Closest report is Buffalo Narrows Airport, 50.0 nm (92.6 km) NNW. Retrieved 2019/10/15 20:00 UTC (53 minutes ago):

CYVT 152000Z AUTO 21006KT 9SM OVC026 02/M02 A3017 RMK SLP240

Closest aviation forecast (TAF) to Beauval Airport

Closest forecast is Buffalo Narrows Airport, 50.0 nm (92.6 km) NNW. Retrieved 2019/10/15 19:00 UTC (2 hours ago):

TAF CYVT 151838Z 1519/1604 19005KT P6SM BKN030 TEMPO 1519/1521 OVC020 BECMG 1519/1521 15010KT FM152100 15012KT P6SM BKN025 TEMPO 1521/1604 SCT025 BKN120 RMK FCST BASED ON AUTO OBS NXT FCST BY 160100Z